Time;durP1;ratioP1;P1;durP2;ratioP2;P2;SDS_P1;SDS_P2;PMS_P1;PMS_P2;Temp;Humidity;BMP_temperature;BMP_pressure;BME280_temperature;BME280_humidity;BME280_pressure;Samples;Min_cycle;Max_cycle;Signal;HPM_P1;HPM_P2
2022/10/14 00:01:04;;;;;;;10.90;9.00;;;;;;;9.68;100.00;100700.00;5041469;28;20127;-74
2022/10/14 00:03:32;;;;;;;15.65;8.98;;;;;;;9.65;100.00;100689.47;5054411;28;20434;-75
2022/10/14 00:05:57;;;;;;;15.30;9.23;;;;;;;9.61;100.00;100696.47;5047570;28;20029;-75
2022/10/14 00:08:23;;;;;;;15.10;10.85;;;;;;;9.56;100.00;100700.00;5045316;28;20049;-75
2022/10/14 00:10:49;;;;;;;14.10;9.60;;;;;;;9.45;100.00;100699.97;5041346;28;20556;-75
2022/10/14 00:13:15;;;;;;;11.65;8.95;;;;;;;9.41;100.00;100700.88;5041747;28;20126;-75
2022/10/14 00:15:41;;;;;;;15.82;11.13;;;;;;;9.39;100.00;100700.00;5039473;28;20098;-75
2022/10/14 00:18:08;;;;;;;16.98;10.30;;;;;;;9.35;100.00;100695.56;5042703;28;20032;-76
2022/10/14 00:20:34;;;;;;;11.93;9.40;;;;;;;9.35;100.00;100695.56;5039848;28;20128;-75
2022/10/14 00:23:00;;;;;;;10.05;8.10;;;;;;;9.37;100.00;100699.97;5040390;28;20160;-75
2022/10/14 00:25:27;;;;;;;15.90;9.07;;;;;;;9.32;100.00;100700.84;5040772;28;20037;-75
2022/10/14 00:27:53;;;;;;;10.85;9.20;;;;;;;9.33;100.00;100697.34;5038981;28;20033;-75
2022/10/14 00:30:18;;;;;;;11.18;8.70;;;;;;;9.42;100.00;100702.63;5038713;28;20488;-74
2022/10/14 00:32:44;;;;;;;12.85;9.43;;;;;;;9.44;100.00;100703.50;5042672;28;20127;-74
2022/10/14 00:35:09;;;;;;;16.27;10.25;;;;;;;9.49;100.00;100701.75;5041481;28;20117;-75
2022/10/14 00:37:34;;;;;;;9.30;8.38;;;;;;;9.50;100.00;100706.13;5043832;28;20044;-75
2022/10/14 00:40:00;;;;;;;16.17;9.18;;;;;;;9.52;100.00;100693.84;5040454;28;20049;-75
2022/10/14 00:42:27;;;;;;;14.18;9.63;;;;;;;9.52;100.00;100699.13;5044503;28;20125;-76
2022/10/14 00:45:12;;;;;;;9.02;8.13;;;;;;;9.52;100.00;100701.75;5047268;28;20180;-74
2022/10/14 00:47:38;;;;;;;11.90;9.30;;;;;;;9.59;100.00;100700.03;5048041;28;20036;-75
2022/10/14 00:50:08;;;;;;;12.93;8.52;;;;;;;9.62;100.00;100698.25;5041605;28;20499;-75
2022/10/14 00:52:33;;;;;;;10.27;7.50;;;;;;;9.63;100.00;100697.38;5046447;28;20544;-75
2022/10/14 00:55:04;;;;;;;11.30;8.98;;;;;;;9.69;100.00;100695.59;5049393;28;20032;-74
2022/10/14 00:57:30;;;;;;;25.05;9.27;;;;;;;9.77;100.00;100699.13;5045111;28;20032;-75
2022/10/14 01:00:06;;;;;;;11.07;8.80;;;;;;;9.79;100.00;100698.25;5043261;28;20112;-75
2022/10/14 01:02:31;;;;;;;12.65;8.50;;;;;;;9.79;100.00;100695.59;5043957;28;20041;-75
2022/10/14 01:04:57;;;;;;;13.90;8.93;;;;;;;9.94;100.00;100700.00;5044097;28;20040;-75
2022/10/14 01:07:37;;;;;;;11.50;8.02;;;;;;;9.97;100.00;100700.00;5040577;28;20090;-75
2022/10/14 01:10:18;;;;;;;13.82;8.77;;;;;;;9.91;100.00;100702.66;5042693;28;20098;-75
2022/10/14 01:12:53;;;;;;;16.35;8.70;;;;;;;10.04;100.00;100703.50;5046951;28;20413;-76
2022/10/14 01:15:33;;;;;;;12.90;8.52;;;;;;;10.13;100.00;100703.50;5042512;28;20540;-75
2022/10/14 01:18:32;;;;;;;11.35;8.88;;;;;;;10.20;100.00;100699.09;5043452;28;20037;-75
2022/10/14 01:20:57;;;;;;;12.35;8.32;;;;;;;10.21;100.00;100700.84;5044574;28;20407;-75
2022/10/14 01:23:39;;;;;;;14.98;9.30;;;;;;;10.21;100.00;100695.56;5047916;28;20029;-75
2022/10/14 01:26:28;;;;;;;14.17;9.63;;;;;;;10.14;100.00;100694.72;5047556;28;20135;-75
2022/10/14 01:29:12;;;;;;;12.60;8.70;;;;;;;10.19;100.00;100697.31;5042077;28;20736;-75
2022/10/14 01:31:44;;;;;;;16.40;9.85;;;;;;;10.21;100.00;100699.06;5041776;28;20033;-75
2022/10/14 01:34:14;;;;;;;13.38;9.75;;;;;;;10.22;100.00;100698.22;5044061;28;20037;-75
2022/10/14 01:36:47;;;;;;;11.70;8.43;;;;;;;10.24;100.00;100701.72;5045277;28;20043;-75
2022/10/14 01:39:19;;;;;;;15.45;9.07;;;;;;;10.32;100.00;100699.06;5043292;28;20038;-75
2022/10/14 01:41:50;;;;;;;14.05;9.05;;;;;;;10.31;100.00;100687.66;5042841;28;20029;-75
2022/10/14 01:44:18;;;;;;;20.85;8.52;;;;;;;10.32;100.00;100685.88;5042121;28;20044;-75
2022/10/14 01:46:49;;;;;;;12.10;7.68;;;;;;;10.40;100.00;100675.31;5042633;28;20025;-75
2022/10/14 01:49:23;;;;;;;9.73;7.80;;;;;;;10.49;100.00;100680.56;5044204;28;20040;-75
2022/10/14 01:51:58;;;;;;;10.65;9.02;;;;;;;10.54;100.00;100678.81;5042765;28;20072;-75
2022/10/14 01:54:30;;;;;;;10.98;8.07;;;;;;;10.56;100.00;100676.13;5048376;28;20453;-75
2022/10/14 01:56:59;;;;;;;11.13;7.85;;;;;;;10.43;100.00;100675.34;5046865;28;20496;-75
2022/10/14 01:59:25;;;;;;;11.18;8.50;;;;;;;10.49;100.00;100677.94;5054603;28;20091;-75
2022/10/14 02:01:50;;;;;;;11.00;8.07;;;;;;;10.51;100.00;100668.25;5042000;28;20048;-75
2022/10/14 02:04:18;;;;;;;12.30;8.52;;;;;;;10.63;100.00;100664.69;5041078;28;20037;-74
2022/10/14 02:06:58;;;;;;;9.77;8.45;;;;;;;10.61;100.00;100663.81;5039443;28;20495;-75
2022/10/14 02:09:29;;;;;;;13.27;7.82;;;;;;;10.65;100.00;100657.63;5043423;28;20459;-75
2022/10/14 02:12:11;;;;;;;10.68;9.10;;;;;;;10.73;100.00;100658.47;5041776;28;20416;-76
2022/10/14 02:15:01;;;;;;;11.40;8.27;;;;;;;10.73;100.00;100653.19;5042487;28;20037;-75
2022/10/14 02:17:49;;;;;;;11.23;7.90;;;;;;;10.70;100.00;100653.22;5058707;28;20103;-75
2022/10/14 02:20:29;;;;;;;13.55;7.97;;;;;;;10.74;100.00;100654.94;5043580;28;20075;-75
2022/10/14 02:23:03;;;;;;;12.55;7.07;;;;;;;10.78;100.00;100655.81;5042023;28;20051;-75
2022/10/14 02:25:34;;;;;;;8.55;6.85;;;;;;;10.66;100.00;100662.03;5040110;28;20033;-75
2022/10/14 02:28:03;;;;;;;13.43;8.95;;;;;;;10.66;100.00;100654.09;5040389;28;20033;-75
2022/10/14 02:30:32;;;;;;;10.00;7.55;;;;;;;10.69;100.00;100656.75;5046974;28;20065;-75
2022/10/14 02:32:59;;;;;;;14.07;8.57;;;;;;;10.74;100.00;100654.94;5041458;28;20045;-76
2022/10/14 02:35:28;;;;;;;9.45;8.15;;;;;;;10.82;100.00;100653.16;5055833;28;20049;-75
2022/10/14 02:37:55;;;;;;;12.60;9.55;;;;;;;10.89;100.00;100654.00;5045714;28;20120;-76
2022/10/14 02:40:40;;;;;;;11.48;8.93;;;;;;;10.96;100.00;100653.09;5041830;28;20032;-75
2022/10/14 02:43:08;;;;;;;11.93;8.93;;;;;;;10.96;100.00;100648.69;5040163;28;20407;-75
2022/10/14 02:45:35;;;;;;;10.38;8.27;;;;;;;10.93;100.00;100651.34;5024267;28;20033;-75
2022/10/14 02:48:00;;;;;;;13.50;7.78;;;;;;;10.93;100.00;100642.53;5054906;28;20064;-75
2022/10/14 02:50:26;;;;;;;13.48;9.02;;;;;;;10.93;100.00;100646.06;5042039;28;20570;-76
2022/10/14 02:52:51;;;;;;;12.90;9.30;;;;;;;10.91;100.00;100647.81;5039210;28;20570;-74
2022/10/14 02:55:16;;;;;;;16.10;10.57;;;;;;;10.93;100.00;100640.78;5043510;28;20047;-75
2022/10/14 02:57:43;;;;;;;12.10;8.68;;;;;;;10.93;100.00;100640.78;5036113;28;20638;-76
2022/10/14 03:00:09;;;;;;;10.05;8.15;;;;;;;10.94;100.00;100642.53;5040479;28;20029;-75
2022/10/14 03:02:34;;;;;;;10.88;8.35;;;;;;;10.90;100.00;100638.16;5040382;28;20032;-76
2022/10/14 03:05:01;;;;;;;12.45;8.52;;;;;;;10.90;100.00;100643.44;5038481;28;20041;-74
2022/10/14 03:07:27;;;;;;;10.02;8.45;;;;;;;10.83;100.00;100644.34;5043266;28;20036;-74
2022/10/14 03:09:57;;;;;;;9.88;8.40;;;;;;;10.79;100.00;100633.81;5042017;28;20029;-76
2022/10/14 03:12:23;;;;;;;17.83;9.20;;;;;;;10.85;100.00;100642.59;5041999;28;20032;-75
2022/10/14 03:14:49;;;;;;;14.60;9.13;;;;;;;10.88;100.00;100636.41;5037558;28;20060;-75
2022/10/14 03:17:16;;;;;;;17.80;9.27;;;;;;;10.93;100.00;100640.78;5041690;28;20040;-76
2022/10/14 03:19:43;;;;;;;10.05;8.10;;;;;;;10.96;100.00;100639.88;5038852;28;20480;-75
2022/10/14 03:22:10;;;;;;;9.98;8.95;;;;;;;10.93;100.00;100635.50;5044655;28;20063;-76
2022/10/14 03:24:37;;;;;;;11.82;8.82;;;;;;;10.89;100.00;100636.38;5046466;28;20033;-75
2022/10/14 03:27:20;;;;;;;14.65;9.13;;;;;;;10.90;100.00;100637.28;5039077;28;20060;-75
2022/10/14 03:29:50;;;;;;;9.68;8.02;;;;;;;10.86;100.00;100633.75;5044305;28;20025;-75
2022/10/14 03:32:19;;;;;;;11.07;8.35;;;;;;;10.86;100.00;100628.47;5034867;28;20053;-76
2022/10/14 03:35:05;;;;;;;11.10;8.98;;;;;;;10.92;100.00;100631.06;5041859;28;20503;-75
2022/10/14 03:37:30;;;;;;;18.08;9.45;;;;;;;10.94;100.00;100631.97;5038406;28;20029;-75
2022/10/14 03:39:57;;;;;;;13.85;8.73;;;;;;;10.92;100.00;100632.84;5042141;28;20078;-76
2022/10/14 03:42:23;;;;;;;19.48;9.18;;;;;;;10.94;100.00;100631.09;5041023;28;20169;-75
2022/10/14 03:44:49;;;;;;;19.00;9.38;;;;;;;10.94;100.00;100631.09;5036154;28;20037;-75
2022/10/14 03:47:19;;;;;;;11.40;9.43;;;;;;;10.91;100.00;100626.69;5040716;28;20040;-75
2022/10/14 03:49:45;;;;;;;12.27;9.52;;;;;;;10.91;100.00;100624.06;5038268;28;20025;-75
2022/10/14 03:52:18;;;;;;;12.23;9.00;;;;;;;10.94;100.00;100624.03;5039298;28;20040;-75
2022/10/14 03:54:47;;;;;;;10.77;8.73;;;;;;;10.88;100.00;100617.94;5039154;28;20029;-76
2022/10/14 03:57:14;;;;;;;12.35;9.57;;;;;;;10.95;100.00;100622.25;5053924;28;20037;-76
2022/10/14 03:59:47;;;;;;;13.77;9.93;;;;;;;10.96;100.00;100619.63;5039053;28;20403;-74
2022/10/14 04:02:12;;;;;;;13.93;9.75;;;;;;;11.02;100.00;100616.06;5040026;28;20037;-76
2022/10/14 04:04:39;;;;;;;13.13;10.07;;;;;;;11.02;100.00;100617.84;5039996;28;20055;-76
2022/10/14 04:07:05;;;;;;;14.77;10.27;;;;;;;11.03;100.00;100615.19;5040579;28;20421;-76
2022/10/14 04:09:31;;;;;;;10.73;9.57;;;;;;;11.04;100.00;100621.34;5038885;28;20034;-76
2022/10/14 04:11:58;;;;;;;13.88;9.10;;;;;;;11.07;100.00;100616.03;5045546;28;20402;-76
2022/10/14 04:14:37;;;;;;;13.13;10.40;;;;;;;11.04;100.00;100611.66;5041444;28;20029;-76
2022/10/14 04:17:02;;;;;;;17.77;10.50;;;;;;;11.03;100.00;100609.00;5045564;28;20044;-75
2022/10/14 04:19:27;;;;;;;17.95;9.32;;;;;;;11.03;100.00;100609.91;5045260;28;20029;-76
2022/10/14 04:21:53;;;;;;;17.48;11.10;;;;;;;11.06;100.00;100601.09;5039393;28;20033;-75
2022/10/14 04:24:20;;;;;;;12.98;10.65;;;;;;;11.07;100.00;100603.69;5063471;28;20506;-75
2022/10/14 04:26:56;;;;;;;15.27;11.02;;;;;;;11.07;100.00;100605.47;5046083;28;20032;-76
2022/10/14 04:29:40;;;;;;;13.57;10.20;;;;;;;11.01;100.00;100600.25;5045388;28;20032;-74
2022/10/14 04:32:14;;;;;;;13.48;8.88;;;;;;;11.01;100.00;100605.53;5052748;28;20032;-75
2022/10/14 04:34:39;;;;;;;12.75;9.40;;;;;;;10.99;100.00;100610.81;5049000;28;20032;-75
2022/10/14 04:37:06;;;;;;;12.95;8.70;;;;;;;11.05;100.00;100601.97;5046165;28;20098;-76
2022/10/14 04:39:54;;;;;;;22.05;9.70;;;;;;;11.04;100.00;100602.84;5012562;28;20535;-75
2022/10/14 04:42:20;;;;;;;11.60;9.45;;;;;;;11.03;100.00;100596.72;5050577;28;20029;-76
2022/10/14 04:44:49;;;;;;;12.65;9.15;;;;;;;10.95;100.00;100599.41;5049137;28;20491;-75
2022/10/14 04:47:18;;;;;;;11.20;10.00;;;;;;;10.99;100.00;100600.25;5050290;28;20039;-75
2022/10/14 04:49:48;;;;;;;16.60;11.07;;;;;;;11.05;100.00;100601.97;5041819;28;20094;-75
2022/10/14 04:52:18;;;;;;;19.77;10.65;;;;;;;11.09;100.00;100595.78;5042081;28;20044;-75
2022/10/14 04:55:03;;;;;;;19.25;11.98;;;;;;;11.11;100.00;100596.66;5051508;28;20040;-75
2022/10/14 04:57:34;;;;;;;13.18;9.98;;;;;;;11.08;100.00;100588.72;5043733;28;20042;-75
2022/10/14 05:00:00;;;;;;;13.05;10.48;;;;;;;11.06;100.00;100587.88;5055366;28;20091;-75
2022/10/14 05:02:43;;;;;;;11.32;9.57;;;;;;;11.06;100.00;100598.44;5042736;28;20029;-74
2022/10/14 05:05:09;;;;;;;13.63;10.15;;;;;;;11.04;100.00;100595.81;5050448;28;20470;-76
2022/10/14 05:07:37;;;;;;;20.70;9.10;;;;;;;11.06;100.00;100598.44;5044809;28;20064;-75
2022/10/14 05:10:18;;;;;;;15.40;9.93;;;;;;;11.00;100.00;100591.41;5040825;28;20033;-75
2022/10/14 05:12:44;;;;;;;15.13;9.65;;;;;;;11.00;100.00;100590.56;5044995;28;20029;-75
2022/10/14 05:15:11;;;;;;;12.23;9.55;;;;;;;11.02;100.00;100591.41;5046108;28;20048;-76
2022/10/14 05:17:45;;;;;;;16.10;10.18;;;;;;;11.08;100.00;100588.72;5048687;28;20422;-74
2022/10/14 05:20:14;;;;;;;15.07;11.30;;;;;;;11.08;100.00;100591.38;5049904;28;20104;-74
2022/10/14 05:22:44;;;;;;;13.90;10.35;;;;;;;11.11;100.00;100586.09;5047943;28;20032;-74
2022/10/14 05:25:09;;;;;;;15.88;10.43;;;;;;;11.14;100.00;100588.72;5044700;28;20029;-75
2022/10/14 05:27:35;;;;;;;23.13;11.95;;;;;;;11.17;100.00;100591.31;5048748;28;20501;-75
2022/10/14 05:30:03;;;;;;;17.38;11.20;;;;;;;11.19;100.00;100593.06;5048986;28;20565;-74
2022/10/14 05:32:29;;;;;;;12.20;10.57;;;;;;;11.14;100.00;100586.06;5063608;28;20025;-75
2022/10/14 05:35:00;;;;;;;15.05;10.73;;;;;;;11.12;100.00;100582.56;5047990;28;20527;-75
2022/10/14 05:37:32;;;;;;;;;;;;;;;11.09;100.00;100579.94;5040559;28;20510;-74
2022/10/14 05:39:58;;;;;;;17.02;10.77;;;;;;;11.06;100.00;100579.97;5061865;28;19913;-75
2022/10/14 05:42:25;;;;;;;16.52;9.60;;;;;;;11.13;100.00;100581.66;5045311;28;20112;-76
2022/10/14 05:44:53;;;;;;;18.40;12.82;;;;;;;11.15;100.00;100585.16;5041229;28;20041;-75
2022/10/14 05:47:18;;;;;;;21.90;10.18;;;;;;;11.14;100.00;100584.28;5039649;28;20066;-74
2022/10/14 05:49:46;;;;;;;20.40;11.57;;;;;;;11.09;100.00;100587.84;5040177;28;20037;-75
2022/10/14 05:52:12;;;;;;;14.52;10.18;;;;;;;11.13;100.00;100590.47;5043150;28;20033;-76
2022/10/14 05:54:37;;;;;;;22.42;11.13;;;;;;;11.14;100.00;100588.72;5038240;28;20036;-75
2022/10/14 05:57:05;;;;;;;18.25;12.73;;;;;;;11.16;100.00;100587.81;5058942;28;20025;-75
2022/10/14 05:59:33;;;;;;;14.13;10.30;;;;;;;11.17;100.00;100592.19;5044121;28;20029;-75
2022/10/14 06:01:58;;;;;;;15.70;11.27;;;;;;;11.15;100.00;100593.09;5056675;28;20041;-76
2022/10/14 06:04:24;;;;;;;24.40;12.00;;;;;;;11.10;100.00;100592.25;5044277;28;20090;-76
2022/10/14 06:06:50;;;;;;;12.02;10.43;;;;;;;11.12;100.00;100588.69;5042325;28;20280;-75
2022/10/14 06:09:16;;;;;;;14.00;10.35;;;;;;;11.17;100.00;100586.03;5041626;28;20029;-74
2022/10/14 06:11:41;;;;;;;18.17;11.48;;;;;;;11.20;100.00;100588.66;5039138;28;20033;-75
2022/10/14 06:14:06;;;;;;;17.33;10.93;;;;;;;11.17;100.00;100584.25;5059472;28;20116;-75
2022/10/14 06:16:32;;;;;;;15.05;10.88;;;;;;;11.24;100.00;100586.84;5039639;28;20033;-75
2022/10/14 06:19:02;;;;;;;15.63;11.82;;;;;;;11.36;100.00;100586.75;5042298;28;20029;-75
2022/10/14 06:21:28;;;;;;;16.92;12.07;;;;;;;11.42;100.00;100589.34;5042608;28;20483;-75
2022/10/14 06:23:53;;;;;;;13.60;10.52;;;;;;;11.50;100.00;100594.56;5042234;28;20154;-75
2022/10/14 06:26:19;;;;;;;23.48;12.32;;;;;;;11.58;100.00;100592.72;5043536;28;20111;-75
2022/10/14 06:28:45;;;;;;;13.27;10.48;;;;;;;11.58;100.00;100592.72;5040757;28;20036;-75
2022/10/14 06:31:10;;;;;;;18.70;11.55;;;;;;;11.64;100.00;100592.69;5041057;28;20053;-75
2022/10/14 06:33:36;;;;;;;16.83;11.43;;;;;;;11.68;100.00;100589.09;5042787;28;20029;-75
2022/10/14 06:36:03;;;;;;;16.02;11.45;;;;;;;11.71;100.00;100585.53;5041997;28;20038;-75
2022/10/14 06:38:28;;;;;;;18.58;11.00;;;;;;;11.78;100.00;100585.47;5048165;28;20449;-75
2022/10/14 06:40:54;;;;;;;16.50;10.93;;;;;;;11.83;100.00;100591.59;5042014;28;20037;-75
2022/10/14 06:43:20;;;;;;;13.95;11.13;;;;;;;11.92;100.00;100603.00;5044802;28;20175;-76
2022/10/14 06:45:47;;;;;;;13.18;10.60;;;;;;;12.01;100.00;100598.50;5042907;28;20033;-75
2022/10/14 06:48:12;;;;;;;21.02;12.32;;;;;;;12.03;99.97;100595.84;5042908;28;20037;-75
2022/10/14 06:50:38;;;;;;;18.80;11.43;;;;;;;12.06;100.00;100587.88;5044430;28;20037;-74
2022/10/14 06:53:03;;;;;;;18.02;10.75;;;;;;;12.13;100.00;100593.94;5041799;28;20049;-75
2022/10/14 06:55:28;;;;;;;17.30;11.38;;;;;;;12.27;100.00;100595.53;5042953;28;20060;-75
2022/10/14 06:57:54;;;;;;;15.75;11.68;;;;;;;12.42;99.12;100594.50;5041310;28;20045;-75
2022/10/14 07:00:19;;;;;;;16.67;11.38;;;;;;;12.47;98.35;100583.81;5040406;28;20060;-75
2022/10/14 07:02:45;;;;;;;19.50;11.80;;;;;;;12.51;99.47;100585.53;5043071;28;20044;-75
2022/10/14 07:05:11;;;;;;;22.10;12.20;;;;;;;12.58;98.71;100589.00;5045863;28;20124;-75
2022/10/14 07:07:36;;;;;;;16.85;12.32;;;;;;;12.66;98.27;100585.34;5047126;28;20120;-76
2022/10/14 07:10:02;;;;;;;17.95;12.13;;;;;;;12.85;97.48;100579.78;5044602;28;20045;-75
2022/10/14 07:12:27;;;;;;;18.70;12.98;;;;;;;12.96;97.20;100591.09;5043231;28;20068;-75
2022/10/14 07:14:53;;;;;;;27.95;16.70;;;;;;;13.08;96.86;100590.91;5039856;28;20073;-75
2022/10/14 07:17:18;;;;;;;30.38;18.63;;;;;;;13.18;97.40;100594.28;5042648;28;20075;-75
2022/10/14 07:19:43;;;;;;;21.75;13.57;;;;;;;13.25;96.63;100597.72;5040977;28;20060;-76
2022/10/14 07:22:09;;;;;;;15.80;11.75;;;;;;;13.34;96.29;100605.56;5041645;28;20083;-75
2022/10/14 07:24:34;;;;;;;17.02;11.38;;;;;;;13.40;94.74;100600.16;5041586;28;20055;-75
2022/10/14 07:27:00;;;;;;;31.00;17.00;;;;;;;13.43;95.41;100608.03;5042761;28;20041;-76
2022/10/14 07:29:26;;;;;;;31.90;18.08;;;;;;;13.49;95.83;100601.75;5036185;28;20095;-76
2022/10/14 07:31:51;;;;;;;16.45;12.20;;;;;;;13.51;95.25;100603.47;5041825;28;20474;-76
2022/10/14 07:34:16;;;;;;;15.40;11.57;;;;;;;13.55;94.80;100605.19;5043289;28;20048;-75
2022/10/14 07:36:42;;;;;;;21.50;10.25;;;;;;;13.63;94.37;100604.19;5041469;28;20045;-75
2022/10/14 07:39:07;;;;;;;17.42;12.05;;;;;;;13.64;94.80;100603.28;5040952;28;20033;-76
2022/10/14 07:41:33;;;;;;;13.88;10.77;;;;;;;13.61;94.67;100603.34;5046906;28;20063;-75
2022/10/14 07:44:02;;;;;;;15.63;10.50;;;;;;;13.55;94.46;100613.16;5040577;28;20028;-76
2022/10/14 07:46:30;;;;;;;14.48;10.55;;;;;;;13.55;94.39;100612.28;5041862;28;20033;-74
2022/10/14 07:48:58;;;;;;;15.10;11.00;;;;;;;13.52;94.13;100615.84;5043849;28;20072;-76
2022/10/14 07:51:25;;;;;;;14.48;9.98;;;;;;;13.44;94.16;100615.13;5041127;28;20037;-75
2022/10/14 07:53:51;;;;;;;15.75;11.15;;;;;;;13.37;94.66;100618.75;5040943;28;20029;-75
2022/10/14 07:56:17;;;;;;;13.38;10.75;;;;;;;13.34;94.98;100621.47;5045077;28;20029;-75
2022/10/14 07:58:42;;;;;;;22.23;12.35;;;;;;;13.31;95.55;100618.88;5037548;28;20404;-76
2022/10/14 08:01:08;;;;;;;15.18;9.82;;;;;;;13.33;96.10;100617.03;5041759;28;20036;-76
2022/10/14 08:03:33;;;;;;;15.82;11.55;;;;;;;13.32;96.29;100621.47;5048468;28;20441;-76
2022/10/14 08:06:01;;;;;;;14.25;10.88;;;;;;;13.32;96.42;100631.22;5042742;28;20720;-76
2022/10/14 08:08:27;;;;;;;16.90;11.48;;;;;;;13.34;97.25;100621.47;5037972;28;20037;-76
2022/10/14 08:11:22;;;;;;;22.70;11.25;;;;;;;13.38;97.44;100620.50;5037987;28;20033;-76
2022/10/14 08:13:49;;;;;;;10.77;9.07;;;;;;;13.52;97.74;100618.50;5033261;28;20558;-76
2022/10/14 08:16:22;;;;;;;15.85;11.93;;;;;;;13.70;97.17;100627.03;5038422;28;20044;-75
2022/10/14 08:18:49;;;;;;;15.88;11.60;;;;;;;13.93;96.65;100616.00;5041356;28;20114;-74
2022/10/14 08:21:16;;;;;;;20.10;12.35;;;;;;;14.22;95.01;100612.78;5037403;28;20029;-75
2022/10/14 08:23:41;;;;;;;20.02;13.32;;;;;;;14.47;93.68;100607.88;5041512;28;20071;-76
2022/10/14 08:26:31;;;;;;;21.88;10.13;;;;;;;14.72;91.89;100610.88;5040413;28;20041;-76
2022/10/14 08:29:02;;;;;;;14.98;11.88;;;;;;;14.85;90.56;100607.06;5039251;28;20033;-74
2022/10/14 08:31:28;;;;;;;23.63;12.47;;;;;;;14.95;89.15;100612.16;5039506;28;20484;-76
2022/10/14 08:33:53;;;;;;;15.23;10.38;;;;;;;15.02;88.84;100605.81;5042317;28;20029;-76
2022/10/14 08:36:20;;;;;;;15.38;10.50;;;;;;;15.02;87.40;100597.84;5039102;28;20554;-76
2022/10/14 08:38:45;;;;;;;14.00;10.23;;;;;;;15.08;88.06;100597.69;5041378;28;20071;-76
2022/10/14 08:41:11;;;;;;;26.70;15.90;;;;;;;15.20;88.65;100597.41;5040888;28;20037;-76
2022/10/14 08:43:43;;;;;;;19.13;11.85;;;;;;;15.28;87.33;100600.75;5040259;28;20167;-75
2022/10/14 08:46:35;;;;;;;28.30;17.85;;;;;;;15.44;88.52;100601.25;5037419;28;20160;-76
2022/10/14 08:49:16;;;;;;;41.83;20.52;;;;;;;15.60;87.30;100593.75;5039401;28;20033;-76
2022/10/14 08:51:46;;;;;;;36.77;17.77;;;;;;;15.76;87.13;100581.81;5039395;28;20091;-76
2022/10/14 08:54:17;;;;;;;16.88;11.90;;;;;;;15.92;84.51;100597.38;5039318;28;20280;-76
2022/10/14 08:56:42;;;;;;;18.88;11.27;;;;;;;16.05;84.48;100588.13;5043393;28;20044;-75
2022/10/14 08:59:18;;;;;;;18.65;10.60;;;;;;;16.26;83.48;100591.97;5042858;28;20080;-76
2022/10/14 09:01:50;;;;;;;14.77;9.82;;;;;;;16.43;82.82;100588.84;5043012;28;20037;-76
2022/10/14 09:04:16;;;;;;;13.57;9.60;;;;;;;16.69;82.36;100592.50;5042716;28;20442;-76
2022/10/14 09:06:44;;;;;;;20.38;9.93;;;;;;;16.76;80.73;100576.28;5044893;28;20032;-76
2022/10/14 09:09:37;;;;;;;15.07;9.32;;;;;;;16.86;80.13;100584.88;5045019;28;20033;-75
2022/10/14 09:12:06;;;;;;;15.23;10.65;;;;;;;16.78;79.78;100579.78;5043302;28;20037;-76
2022/10/14 09:14:36;;;;;;;14.85;8.48;;;;;;;16.96;79.20;100581.03;5050006;28;20091;-76
2022/10/14 09:17:17;;;;;;;14.32;10.15;;;;;;;17.02;76.54;100577.28;5046763;28;20492;-75
2022/10/14 09:19:51;;;;;;;16.73;10.38;;;;;;;17.08;77.08;100583.31;5045153;28;20059;-75
2022/10/14 09:22:16;;;;;;;13.73;10.30;;;;;;;17.16;76.82;100577.72;5046977;28;20101;-76
2022/10/14 09:24:45;;;;;;;14.48;11.40;;;;;;;17.35;75.85;100577.97;5046482;28;20127;-76
2022/10/14 09:27:16;;;;;;;13.32;8.88;;;;;;;17.46;75.24;100578.47;5044325;28;20041;-76
2022/10/14 09:29:47;;;;;;;13.32;9.18;;;;;;;17.48;73.50;100565.97;5044320;28;20032;-74
2022/10/14 09:32:39;;;;;;;12.25;9.25;;;;;;;17.32;74.76;100570.09;5041683;28;20605;-76
2022/10/14 09:35:21;;;;;;;12.07;9.05;;;;;;;17.35;74.01;100564.66;5042751;28;20071;-76
2022/10/14 09:37:47;;;;;;;10.60;8.48;;;;;;;17.44;74.13;100560.78;5046914;28;20029;-76
2022/10/14 09:40:12;;;;;;;10.88;8.55;;;;;;;17.56;74.43;100560.38;5042755;28;20495;-75
2022/10/14 09:42:51;;;;;;;13.07;8.60;;;;;;;17.81;72.71;100568.41;5045060;28;20028;-75
2022/10/14 09:45:24;;;;;;;12.85;8.07;;;;;;;17.93;73.46;100557.31;5044394;28;20103;-76
2022/10/14 09:47:55;;;;;;;9.38;8.43;;;;;;;18.00;72.09;100557.06;5049156;28;20107;-76
2022/10/14 09:50:33;;;;;;;14.93;9.18;;;;;;;17.99;71.82;100550.00;5044083;28;20030;-76
2022/10/14 09:53:03;;;;;;;12.68;10.15;;;;;;;17.99;70.44;100558.88;5044994;28;20052;-76
2022/10/14 09:55:30;;;;;;;11.48;9.70;;;;;;;17.94;70.52;100551.03;5041268;28;20048;-78
2022/10/14 09:58:02;;;;;;;14.90;8.55;;;;;;;18.04;71.72;100545.34;5042726;28;20062;-76
2022/10/14 10:00:29;;;;;;;11.52;8.68;;;;;;;18.08;70.67;100550.53;5057046;28;20041;-76
2022/10/14 10:02:55;;;;;;;16.23;10.05;;;;;;;18.03;70.30;100552.50;5044127;28;20062;-76
2022/10/14 10:05:25;;;;;;;14.13;9.63;;;;;;;18.21;70.87;100542.94;5042701;28;20052;-76
2022/10/14 10:08:06;;;;;;;12.60;9.57;;;;;;;18.35;70.17;100548.63;5039771;28;20049;-76
2022/10/14 10:10:34;;;;;;;13.00;9.95;;;;;;;18.34;70.48;100543.34;5043284;28;20406;-76
2022/10/14 10:13:00;;;;;;;15.73;7.80;;;;;;;18.44;70.67;100547.38;5042326;28;20049;-76
2022/10/14 10:15:25;;;;;;;8.90;6.57;;;;;;;18.49;67.52;100549.91;5046551;28;20107;-76
2022/10/14 10:17:51;;;;;;;8.20;7.03;;;;;;;18.31;66.88;100544.34;5044222;28;20578;-75
2022/10/14 10:20:19;;;;;;;12.63;7.88;;;;;;;18.46;67.44;100531.31;5044015;28;20045;-76
2022/10/14 10:22:45;;;;;;;9.60;8.20;;;;;;;18.65;66.48;100532.31;5044639;28;20033;-76
2022/10/14 10:25:11;;;;;;;10.90;8.65;;;;;;;18.55;66.58;100533.63;5031653;28;20029;-75
2022/10/14 10:27:44;;;;;;;13.45;8.73;;;;;;;18.71;66.87;100528.56;5047045;28;20514;-76
2022/10/14 10:30:16;;;;;;;15.65;8.38;;;;;;;18.96;66.36;100534.66;5046844;28;20495;-76
2022/10/14 10:33:15;;;;;;;11.75;8.07;;;;;;;19.05;65.84;100533.44;5042819;28;20120;-75
2022/10/14 10:36:16;;;;;;;8.98;6.45;;;;;;;19.25;63.85;100524.56;5043951;28;20140;-76
2022/10/14 10:39:02;;;;;;;9.48;7.00;;;;;;;19.12;64.33;100529.56;5041953;28;20071;-76
2022/10/14 10:41:47;;;;;;;8.65;7.30;;;;;;;19.25;64.44;100519.22;5046375;28;20494;-76
2022/10/14 10:44:24;;;;;;;9.90;8.27;;;;;;;19.34;63.45;100523.31;5044718;28;20502;-76
2022/10/14 10:47:10;;;;;;;9.60;7.65;;;;;;;18.91;63.81;100515.25;5041894;28;20033;-76
2022/10/14 10:49:51;;;;;;;18.73;13.93;;;;;;;19.09;64.38;100512.78;5042393;28;20037;-75
2022/10/14 10:52:33;;;;;;;11.13;8.30;;;;;;;19.37;62.56;100507.13;5041770;28;20392;-76
2022/10/14 10:55:05;;;;;;;;;;;;;;;19.48;62.71;100496.81;5045820;28;20120;-76
2022/10/14 10:57:52;;;;;;;10.13;7.25;;;;;;;19.54;63.05;100499.22;5043096;28;20264;-76
2022/10/14 11:00:21;;;;;;;19.25;13.77;;;;;;;19.82;62.40;100498.03;5045427;28;20556;-76
2022/10/14 11:02:59;;;;;;;15.65;14.05;;;;;;;20.04;62.22;100489.88;5042113;28;20516;-77
2022/10/14 11:05:45;;;;;;;15.75;13.80;;;;;;;20.13;59.30;100487.66;5039027;28;20414;-76
2022/10/14 11:14:49;;;;;;;14.93;11.77;;;;;;;19.45;61.54;100488.94;5042575;28;20040;-76
2022/10/14 11:17:33;;;;;;;14.20;12.85;;;;;;;19.04;62.67;100495.09;5044183;28;20041;-76
2022/10/14 11:20:37;;;;;;;13.38;12.02;;;;;;;19.06;62.00;100492.38;5040142;28;20468;-76
2022/10/14 11:23:17;;;;;;;13.38;11.90;;;;;;;18.97;62.26;100498.13;5022350;28;20124;-76
2022/10/14 11:26:04;;;;;;;15.30;13.38;;;;;;;18.94;63.26;100495.53;5041109;28;20407;-77
2022/10/14 11:28:45;;;;;;;11.95;10.85;;;;;;;18.78;62.67;100492.63;5038077;28;20041;-76
2022/10/14 11:31:10;;;;;;;13.90;12.50;;;;;;;18.81;63.19;100493.41;5043048;28;20048;-76
2022/10/14 11:33:57;;;;;;;18.05;13.88;;;;;;;18.77;64.64;100493.56;5038768;28;20046;-75